sensor_id;sensor_type;location;lat;lon;timestamp;P1;durP1;ratioP1;P2;durP2;ratioP2
56770;SDS011;42641;59.794;17.616;2024-03-23T00:54:09;5.27;;;1.87;;
56770;SDS011;42641;59.794;17.616;2024-03-23T00:56:35;7.87;;;1.93;;
56770;SDS011;42641;59.794;17.616;2024-03-23T00:59:01;6.37;;;2.13;;
56770;SDS011;42641;59.794;17.616;2024-03-23T01:01:28;3.83;;;1.50;;
56770;SDS011;42641;59.794;17.616;2024-03-23T01:03:54;5.60;;;1.90;;
56770;SDS011;42641;59.794;17.616;2024-03-23T01:06:20;8.03;;;2.40;;
56770;SDS011;42641;59.794;17.616;2024-03-23T01:08:47;6.70;;;1.67;;
56770;SDS011;42641;59.794;17.616;2024-03-23T01:11:13;9.37;;;1.97;;
56770;SDS011;42641;59.794;17.616;2024-03-23T01:13:40;4.97;;;1.73;;
56770;SDS011;42641;59.794;17.616;2024-03-23T01:16:06;6.30;;;2.00;;
56770;SDS011;42641;59.794;17.616;2024-03-23T01:18:32;6.57;;;2.00;;
56770;SDS011;42641;59.794;17.616;2024-03-23T01:20:59;6.17;;;2.17;;
56770;SDS011;42641;59.794;17.616;2024-03-23T01:23:25;5.83;;;1.80;;
56770;SDS011;42641;59.794;17.616;2024-03-23T01:25:52;5.37;;;1.70;;
56770;SDS011;42641;59.794;17.616;2024-03-23T01:28:19;5.73;;;2.03;;
56770;SDS011;42641;59.794;17.616;2024-03-23T01:30:46;7.40;;;2.00;;
56770;SDS011;42641;59.794;17.616;2024-03-23T01:33:13;5.23;;;1.60;;
56770;SDS011;42641;59.794;17.616;2024-03-23T01:35:40;7.37;;;1.67;;
56770;SDS011;42641;59.794;17.616;2024-03-23T01:38:06;7.67;;;1.80;;
56770;SDS011;42641;59.794;17.616;2024-03-23T01:40:32;8.57;;;2.10;;
56770;SDS011;42641;59.794;17.616;2024-03-23T01:43:03;7.40;;;2.47;;
56770;SDS011;42641;59.794;17.616;2024-03-23T01:45:31;5.30;;;1.90;;
56770;SDS011;42641;59.794;17.616;2024-03-23T01:47:58;6.17;;;2.23;;
56770;SDS011;42641;59.794;17.616;2024-03-23T01:50:25;5.50;;;1.73;;
56770;SDS011;42641;59.794;17.616;2024-03-23T01:52:53;7.87;;;2.40;;
56770;SDS011;42641;59.794;17.616;2024-03-23T01:55:20;8.97;;;2.23;;
56770;SDS011;42641;59.794;17.616;2024-03-23T01:57:46;5.93;;;1.73;;
56770;SDS011;42641;59.794;17.616;2024-03-23T02:00:13;8.20;;;2.23;;
56770;SDS011;42641;59.794;17.616;2024-03-23T02:02:46;6.73;;;1.80;;
56770;SDS011;42641;59.794;17.616;2024-03-23T02:05:12;4.23;;;2.03;;
56770;SDS011;42641;59.794;17.616;2024-03-23T02:07:39;8.10;;;1.93;;
56770;SDS011;42641;59.794;17.616;2024-03-23T02:10:07;4.80;;;2.00;;
56770;SDS011;42641;59.794;17.616;2024-03-23T02:12:35;7.03;;;1.90;;
56770;SDS011;42641;59.794;17.616;2024-03-23T02:15:02;5.77;;;2.00;;
56770;SDS011;42641;59.794;17.616;2024-03-23T02:17:34;10.00;;;2.43;;
56770;SDS011;42641;59.794;17.616;2024-03-23T02:20:02;5.70;;;2.00;;
56770;SDS011;42641;59.794;17.616;2024-03-23T02:22:38;5.33;;;1.70;;
56770;SDS011;42641;59.794;17.616;2024-03-23T02:25:05;5.90;;;2.30;;
56770;SDS011;42641;59.794;17.616;2024-03-23T02:27:32;6.53;;;2.10;;
56770;SDS011;42641;59.794;17.616;2024-03-23T02:30:00;5.97;;;1.80;;
56770;SDS011;42641;59.794;17.616;2024-03-23T02:32:27;3.00;;;1.60;;
56770;SDS011;42641;59.794;17.616;2024-03-23T02:34:53;5.50;;;1.60;;
56770;SDS011;42641;59.794;17.616;2024-03-23T02:37:19;9.10;;;1.73;;
56770;SDS011;42641;59.794;17.616;2024-03-23T02:39:46;5.53;;;1.60;;
56770;SDS011;42641;59.794;17.616;2024-03-23T02:42:12;4.43;;;1.47;;
56770;SDS011;42641;59.794;17.616;2024-03-23T02:44:38;7.17;;;1.63;;
56770;SDS011;42641;59.794;17.616;2024-03-23T02:47:05;3.13;;;1.90;;
56770;SDS011;42641;59.794;17.616;2024-03-23T02:49:31;8.20;;;2.27;;
56770;SDS011;42641;59.794;17.616;2024-03-23T02:51:58;5.77;;;1.67;;
56770;SDS011;42641;59.794;17.616;2024-03-23T02:54:24;7.40;;;2.10;;
56770;SDS011;42641;59.794;17.616;2024-03-23T02:56:50;5.83;;;2.07;;
56770;SDS011;42641;59.794;17.616;2024-03-23T02:59:17;6.23;;;1.97;;
56770;SDS011;42641;59.794;17.616;2024-03-23T03:01:43;4.10;;;1.50;;
56770;SDS011;42641;59.794;17.616;2024-03-23T03:04:09;10.37;;;2.30;;
56770;SDS011;42641;59.794;17.616;2024-03-23T03:06:36;9.13;;;2.57;;
56770;SDS011;42641;59.794;17.616;2024-03-23T03:09:03;11.30;;;2.53;;
56770;SDS011;42641;59.794;17.616;2024-03-23T03:11:30;6.47;;;1.80;;
56770;SDS011;42641;59.794;17.616;2024-03-23T03:13:56;9.73;;;1.93;;
56770;SDS011;42641;59.794;17.616;2024-03-23T03:16:26;13.63;;;2.33;;
56770;SDS011;42641;59.794;17.616;2024-03-23T03:18:52;9.07;;;2.20;;
56770;SDS011;42641;59.794;17.616;2024-03-23T03:21:19;7.47;;;2.13;;
56770;SDS011;42641;59.794;17.616;2024-03-23T03:23:45;8.53;;;2.33;;
56770;SDS011;42641;59.794;17.616;2024-03-23T03:26:11;9.40;;;2.40;;
56770;SDS011;42641;59.794;17.616;2024-03-23T03:28:38;10.03;;;1.87;;
56770;SDS011;42641;59.794;17.616;2024-03-23T03:31:04;12.53;;;2.50;;
56770;SDS011;42641;59.794;17.616;2024-03-23T03:33:31;8.50;;;3.07;;
56770;SDS011;42641;59.794;17.616;2024-03-23T03:35:57;7.10;;;2.07;;
56770;SDS011;42641;59.794;17.616;2024-03-23T03:38:24;6.40;;;2.57;;
56770;SDS011;42641;59.794;17.616;2024-03-23T03:40:50;9.97;;;2.80;;
56770;SDS011;42641;59.794;17.616;2024-03-23T03:43:18;11.67;;;2.80;;
56770;SDS011;42641;59.794;17.616;2024-03-23T03:45:51;8.57;;;2.10;;
56770;SDS011;42641;59.794;17.616;2024-03-23T03:48:21;11.80;;;2.60;;
56770;SDS011;42641;59.794;17.616;2024-03-23T03:50:47;6.57;;;2.20;;
56770;SDS011;42641;59.794;17.616;2024-03-23T03:53:13;9.27;;;2.07;;
56770;SDS011;42641;59.794;17.616;2024-03-23T03:55:40;8.37;;;2.43;;
56770;SDS011;42641;59.794;17.616;2024-03-23T03:58:06;6.83;;;2.37;;
56770;SDS011;42641;59.794;17.616;2024-03-23T04:00:32;13.87;;;2.43;;
56770;SDS011;42641;59.794;17.616;2024-03-23T04:02:59;6.37;;;1.90;;
56770;SDS011;42641;59.794;17.616;2024-03-23T04:05:25;9.80;;;2.47;;
56770;SDS011;42641;59.794;17.616;2024-03-23T04:07:51;6.67;;;2.20;;
56770;SDS011;42641;59.794;17.616;2024-03-23T04:10:18;6.67;;;2.33;;
56770;SDS011;42641;59.794;17.616;2024-03-23T04:12:46;5.70;;;1.97;;
56770;SDS011;42641;59.794;17.616;2024-03-23T04:15:13;10.67;;;2.50;;
56770;SDS011;42641;59.794;17.616;2024-03-23T04:17:40;10.23;;;2.67;;
56770;SDS011;42641;59.794;17.616;2024-03-23T04:20:08;13.53;;;2.63;;
56770;SDS011;42641;59.794;17.616;2024-03-23T04:22:37;8.37;;;2.40;;
56770;SDS011;42641;59.794;17.616;2024-03-23T04:25:03;8.77;;;2.23;;
56770;SDS011;42641;59.794;17.616;2024-03-23T04:27:32;10.87;;;2.47;;
56770;SDS011;42641;59.794;17.616;2024-03-23T04:29:59;11.37;;;2.80;;
56770;SDS011;42641;59.794;17.616;2024-03-23T04:32:27;10.23;;;2.70;;
56770;SDS011;42641;59.794;17.616;2024-03-23T04:34:54;9.33;;;2.50;;
56770;SDS011;42641;59.794;17.616;2024-03-23T04:37:21;11.30;;;2.57;;
56770;SDS011;42641;59.794;17.616;2024-03-23T04:39:47;10.23;;;2.70;;
56770;SDS011;42641;59.794;17.616;2024-03-23T04:42:17;13.60;;;2.50;;
56770;SDS011;42641;59.794;17.616;2024-03-23T04:44:43;7.53;;;2.40;;
56770;SDS011;42641;59.794;17.616;2024-03-23T04:47:10;11.07;;;2.80;;
56770;SDS011;42641;59.794;17.616;2024-03-23T04:49:38;8.37;;;2.53;;
56770;SDS011;42641;59.794;17.616;2024-03-23T04:52:05;12.70;;;2.87;;
56770;SDS011;42641;59.794;17.616;2024-03-23T04:54:31;11.43;;;2.50;;
56770;SDS011;42641;59.794;17.616;2024-03-23T04:56:58;10.73;;;2.43;;
56770;SDS011;42641;59.794;17.616;2024-03-23T04:59:24;7.73;;;2.93;;
56770;SDS011;42641;59.794;17.616;2024-03-23T05:01:51;10.17;;;2.63;;
56770;SDS011;42641;59.794;17.616;2024-03-23T05:04:18;11.70;;;2.60;;
56770;SDS011;42641;59.794;17.616;2024-03-23T05:06:44;9.93;;;2.97;;
56770;SDS011;42641;59.794;17.616;2024-03-23T05:09:10;12.43;;;2.57;;
56770;SDS011;42641;59.794;17.616;2024-03-23T05:11:38;12.00;;;2.57;;
56770;SDS011;42641;59.794;17.616;2024-03-23T05:14:04;9.70;;;2.60;;
56770;SDS011;42641;59.794;17.616;2024-03-23T05:16:31;17.83;;;2.67;;
56770;SDS011;42641;59.794;17.616;2024-03-23T05:18:57;13.23;;;2.97;;
56770;SDS011;42641;59.794;17.616;2024-03-23T05:21:23;18.10;;;2.60;;
56770;SDS011;42641;59.794;17.616;2024-03-23T05:23:50;15.40;;;3.40;;
56770;SDS011;42641;59.794;17.616;2024-03-23T05:26:17;13.00;;;2.37;;
56770;SDS011;42641;59.794;17.616;2024-03-23T05:28:43;11.00;;;2.50;;
56770;SDS011;42641;59.794;17.616;2024-03-23T05:31:10;9.23;;;2.87;;
56770;SDS011;42641;59.794;17.616;2024-03-23T05:33:36;13.27;;;3.37;;
56770;SDS011;42641;59.794;17.616;2024-03-23T05:36:05;9.93;;;2.77;;
56770;SDS011;42641;59.794;17.616;2024-03-23T05:38:36;16.10;;;3.60;;
56770;SDS011;42641;59.794;17.616;2024-03-23T05:41:03;11.33;;;2.60;;
56770;SDS011;42641;59.794;17.616;2024-03-23T05:43:29;13.00;;;2.80;;
56770;SDS011;42641;59.794;17.616;2024-03-23T05:45:57;14.33;;;3.07;;
56770;SDS011;42641;59.794;17.616;2024-03-23T05:48:25;11.83;;;2.67;;
56770;SDS011;42641;59.794;17.616;2024-03-23T05:50:52;15.13;;;3.13;;
56770;SDS011;42641;59.794;17.616;2024-03-23T05:53:18;11.03;;;2.83;;
56770;SDS011;42641;59.794;17.616;2024-03-23T05:55:48;11.57;;;2.93;;
56770;SDS011;42641;59.794;17.616;2024-03-23T05:58:15;18.03;;;3.57;;
56770;SDS011;42641;59.794;17.616;2024-03-23T06:00:43;18.80;;;3.13;;
56770;SDS011;42641;59.794;17.616;2024-03-23T06:03:09;9.17;;;2.67;;
56770;SDS011;42641;59.794;17.616;2024-03-23T06:05:36;11.57;;;3.07;;
56770;SDS011;42641;59.794;17.616;2024-03-23T06:08:03;9.13;;;2.83;;
56770;SDS011;42641;59.794;17.616;2024-03-23T06:10:30;13.23;;;3.43;;
56770;SDS011;42641;59.794;17.616;2024-03-23T06:12:57;8.13;;;2.57;;
56770;SDS011;42641;59.794;17.616;2024-03-23T06:15:25;12.60;;;3.03;;
56770;SDS011;42641;59.794;17.616;2024-03-23T06:17:53;7.50;;;2.90;;
56770;SDS011;42641;59.794;17.616;2024-03-23T06:20:19;13.53;;;3.17;;
56770;SDS011;42641;59.794;17.616;2024-03-23T06:22:45;15.47;;;3.67;;
56770;SDS011;42641;59.794;17.616;2024-03-23T06:25:12;12.57;;;3.20;;
56770;SDS011;42641;59.794;17.616;2024-03-23T06:27:38;17.13;;;3.13;;
56770;SDS011;42641;59.794;17.616;2024-03-23T06:30:05;13.77;;;3.27;;
56770;SDS011;42641;59.794;17.616;2024-03-23T06:32:32;15.00;;;3.00;;
56770;SDS011;42641;59.794;17.616;2024-03-23T06:34:59;10.73;;;2.60;;
56770;SDS011;42641;59.794;17.616;2024-03-23T06:37:25;8.50;;;3.00;;
56770;SDS011;42641;59.794;17.616;2024-03-23T06:39:52;16.13;;;3.20;;
56770;SDS011;42641;59.794;17.616;2024-03-23T06:42:18;10.37;;;2.93;;
56770;SDS011;42641;59.794;17.616;2024-03-23T06:44:45;9.93;;;2.87;;
56770;SDS011;42641;59.794;17.616;2024-03-23T06:47:12;14.97;;;3.03;;
56770;SDS011;42641;59.794;17.616;2024-03-23T06:49:38;11.87;;;2.83;;
56770;SDS011;42641;59.794;17.616;2024-03-23T06:52:05;13.57;;;3.03;;
56770;SDS011;42641;59.794;17.616;2024-03-23T06:54:31;10.67;;;3.30;;
56770;SDS011;42641;59.794;17.616;2024-03-23T06:56:58;11.53;;;2.87;;
56770;SDS011;42641;59.794;17.616;2024-03-23T06:59:24;12.90;;;3.40;;
56770;SDS011;42641;59.794;17.616;2024-03-23T07:01:51;10.47;;;2.73;;
56770;SDS011;42641;59.794;17.616;2024-03-23T07:04:17;13.83;;;2.70;;
56770;SDS011;42641;59.794;17.616;2024-03-23T07:06:44;9.80;;;3.00;;
56770;SDS011;42641;59.794;17.616;2024-03-23T07:09:11;13.57;;;2.90;;
56770;SDS011;42641;59.794;17.616;2024-03-23T07:11:38;15.73;;;2.90;;
56770;SDS011;42641;59.794;17.616;2024-03-23T07:14:04;12.77;;;3.10;;
56770;SDS011;42641;59.794;17.616;2024-03-23T07:16:31;11.20;;;2.40;;
56770;SDS011;42641;59.794;17.616;2024-03-23T07:19:03;10.87;;;2.70;;
56770;SDS011;42641;59.794;17.616;2024-03-23T07:21:30;11.57;;;3.30;;
56770;SDS011;42641;59.794;17.616;2024-03-23T07:23:57;12.57;;;2.77;;
56770;SDS011;42641;59.794;17.616;2024-03-23T07:26:23;11.57;;;3.17;;
56770;SDS011;42641;59.794;17.616;2024-03-23T07:28:49;9.93;;;2.80;;
56770;SDS011;42641;59.794;17.616;2024-03-23T07:31:15;11.90;;;2.77;;
56770;SDS011;42641;59.794;17.616;2024-03-23T07:33:42;12.77;;;3.40;;
56770;SDS011;42641;59.794;17.616;2024-03-23T07:36:10;14.53;;;3.30;;
56770;SDS011;42641;59.794;17.616;2024-03-23T07:38:37;12.53;;;3.17;;
56770;SDS011;42641;59.794;17.616;2024-03-23T07:41:09;12.67;;;2.97;;
56770;SDS011;42641;59.794;17.616;2024-03-23T07:43:43;11.43;;;2.93;;
56770;SDS011;42641;59.794;17.616;2024-03-23T07:46:10;9.77;;;3.10;;
56770;SDS011;42641;59.794;17.616;2024-03-23T07:48:38;12.20;;;3.10;;
56770;SDS011;42641;59.794;17.616;2024-03-23T07:51:06;12.10;;;2.80;;
56770;SDS011;42641;59.794;17.616;2024-03-23T07:53:34;10.57;;;2.40;;
56770;SDS011;42641;59.794;17.616;2024-03-23T07:56:06;14.67;;;3.10;;
56770;SDS011;42641;59.794;17.616;2024-03-23T07:58:34;13.73;;;2.93;;
56770;SDS011;42641;59.794;17.616;2024-03-23T08:01:08;11.07;;;2.87;;
56770;SDS011;42641;59.794;17.616;2024-03-23T08:03:36;11.67;;;3.00;;
56770;SDS011;42641;59.794;17.616;2024-03-23T08:06:16;13.80;;;2.80;;
56770;SDS011;42641;59.794;17.616;2024-03-23T08:08:45;10.77;;;2.70;;
56770;SDS011;42641;59.794;17.616;2024-03-23T08:11:13;10.93;;;2.47;;
56770;SDS011;42641;59.794;17.616;2024-03-23T08:13:40;11.57;;;3.13;;
56770;SDS011;42641;59.794;17.616;2024-03-23T08:16:07;6.17;;;2.87;;
56770;SDS011;42641;59.794;17.616;2024-03-23T08:18:37;10.07;;;2.70;;
56770;SDS011;42641;59.794;17.616;2024-03-23T08:21:05;12.13;;;3.33;;
56770;SDS011;42641;59.794;17.616;2024-03-23T08:23:32;9.17;;;2.33;;
56770;SDS011;42641;59.794;17.616;2024-03-23T08:26:00;9.57;;;2.90;;
56770;SDS011;42641;59.794;17.616;2024-03-23T08:28:27;9.40;;;3.07;;
56770;SDS011;42641;59.794;17.616;2024-03-23T08:30:54;15.13;;;3.30;;
56770;SDS011;42641;59.794;17.616;2024-03-23T08:33:21;11.90;;;2.80;;
56770;SDS011;42641;59.794;17.616;2024-03-23T08:35:57;11.03;;;2.43;;
56770;SDS011;42641;59.794;17.616;2024-03-23T08:38:24;11.43;;;2.70;;
56770;SDS011;42641;59.794;17.616;2024-03-23T08:41:25;9.67;;;2.97;;
56770;SDS011;42641;59.794;17.616;2024-03-23T08:43:44;9.33;;;2.50;;
56770;SDS011;42641;59.794;17.616;2024-03-23T08:48:44;9.97;;;3.00;;
56770;SDS011;42641;59.794;17.616;2024-03-23T08:51:15;13.77;;;3.13;;
56770;SDS011;42641;59.794;17.616;2024-03-23T08:53:42;14.30;;;3.17;;
56770;SDS011;42641;59.794;17.616;2024-03-23T08:56:10;8.97;;;2.53;;
56770;SDS011;42641;59.794;17.616;2024-03-23T08:58:37;11.13;;;3.13;;
56770;SDS011;42641;59.794;17.616;2024-03-23T09:01:06;9.20;;;2.77;;
56770;SDS011;42641;59.794;17.616;2024-03-23T09:03:34;13.63;;;2.93;;
56770;SDS011;42641;59.794;17.616;2024-03-23T09:06:02;9.77;;;2.97;;
56770;SDS011;42641;59.794;17.616;2024-03-23T09:08:32;14.87;;;3.20;;
56770;SDS011;42641;59.794;17.616;2024-03-23T09:11:03;14.13;;;3.00;;
56770;SDS011;42641;59.794;17.616;2024-03-23T09:13:32;11.87;;;2.87;;
56770;SDS011;42641;59.794;17.616;2024-03-23T09:16:02;11.83;;;3.23;;
56770;SDS011;42641;59.794;17.616;2024-03-23T09:18:34;11.40;;;2.90;;
56770;SDS011;42641;59.794;17.616;2024-03-23T09:21:01;12.43;;;2.70;;
56770;SDS011;42641;59.794;17.616;2024-03-23T09:23:28;12.03;;;2.90;;
56770;SDS011;42641;59.794;17.616;2024-03-23T09:25:55;10.17;;;3.07;;
56770;SDS011;42641;59.794;17.616;2024-03-23T09:28:22;7.20;;;2.33;;
56770;SDS011;42641;59.794;17.616;2024-03-23T09:30:48;13.20;;;2.87;;
56770;SDS011;42641;59.794;17.616;2024-03-23T09:33:15;12.37;;;2.27;;
56770;SDS011;42641;59.794;17.616;2024-03-23T09:35:42;11.00;;;2.70;;
56770;SDS011;42641;59.794;17.616;2024-03-23T09:38:10;12.43;;;2.87;;
56770;SDS011;42641;59.794;17.616;2024-03-23T09:40:40;10.07;;;2.73;;
56770;SDS011;42641;59.794;17.616;2024-03-23T09:43:10;8.23;;;3.23;;
56770;SDS011;42641;59.794;17.616;2024-03-23T09:45:40;9.43;;;2.60;;
56770;SDS011;42641;59.794;17.616;2024-03-23T09:48:08;8.43;;;2.97;;
56770;SDS011;42641;59.794;17.616;2024-03-23T09:50:38;7.83;;;2.67;;
56770;SDS011;42641;59.794;17.616;2024-03-23T09:53:06;12.93;;;2.70;;
56770;SDS011;42641;59.794;17.616;2024-03-23T09:55:33;13.20;;;3.27;;
56770;SDS011;42641;59.794;17.616;2024-03-23T09:58:02;10.20;;;2.93;;
56770;SDS011;42641;59.794;17.616;2024-03-23T10:00:28;13.50;;;3.40;;
56770;SDS011;42641;59.794;17.616;2024-03-23T10:02:55;14.00;;;2.83;;
56770;SDS011;42641;59.794;17.616;2024-03-23T10:05:23;12.67;;;3.13;;
56770;SDS011;42641;59.794;17.616;2024-03-23T10:07:50;11.97;;;3.30;;
56770;SDS011;42641;59.794;17.616;2024-03-23T10:10:17;10.73;;;3.10;;
56770;SDS011;42641;59.794;17.616;2024-03-23T10:12:47;12.73;;;2.93;;
56770;SDS011;42641;59.794;17.616;2024-03-23T10:17:46;12.30;;;3.60;;
56770;SDS011;42641;59.794;17.616;2024-03-23T10:20:13;11.03;;;2.93;;
56770;SDS011;42641;59.794;17.616;2024-03-23T10:22:50;11.27;;;3.47;;
56770;SDS011;42641;59.794;17.616;2024-03-23T10:25:17;9.80;;;2.67;;
56770;SDS011;42641;59.794;17.616;2024-03-23T10:28:00;10.67;;;2.93;;
56770;SDS011;42641;59.794;17.616;2024-03-23T10:30:27;12.70;;;3.33;;
56770;SDS011;42641;59.794;17.616;2024-03-23T10:33:10;14.40;;;3.43;;
56770;SDS011;42641;59.794;17.616;2024-03-23T10:35:37;10.23;;;2.90;;
56770;SDS011;42641;59.794;17.616;2024-03-23T10:38:07;13.27;;;3.60;;
56770;SDS011;42641;59.794;17.616;2024-03-23T10:40:34;12.33;;;3.23;;
56770;SDS011;42641;59.794;17.616;2024-03-23T10:43:05;11.03;;;3.27;;
56770;SDS011;42641;59.794;17.616;2024-03-23T10:45:34;9.57;;;2.90;;
56770;SDS011;42641;59.794;17.616;2024-03-23T10:48:01;13.37;;;4.00;;
56770;SDS011;42641;59.794;17.616;2024-03-23T10:50:28;11.00;;;2.83;;
56770;SDS011;42641;59.794;17.616;2024-03-23T10:52:55;10.17;;;2.70;;
56770;SDS011;42641;59.794;17.616;2024-03-23T10:55:25;13.00;;;3.07;;
56770;SDS011;42641;59.794;17.616;2024-03-23T10:57:53;10.27;;;2.83;;
56770;SDS011;42641;59.794;17.616;2024-03-23T11:00:21;12.63;;;2.57;;
56770;SDS011;42641;59.794;17.616;2024-03-23T11:02:49;7.63;;;2.30;;
56770;SDS011;42641;59.794;17.616;2024-03-23T11:07:57;10.93;;;4.50;;
56770;SDS011;42641;59.794;17.616;2024-03-23T11:12:51;10.67;;;2.70;;
56770;SDS011;42641;59.794;17.616;2024-03-23T11:15:18;11.37;;;3.27;;
56770;SDS011;42641;59.794;17.616;2024-03-23T11:18:04;9.20;;;2.50;;
56770;SDS011;42641;59.794;17.616;2024-03-23T11:20:34;11.23;;;2.90;;
56770;SDS011;42641;59.794;17.616;2024-03-23T11:23:01;11.67;;;3.20;;
56770;SDS011;42641;59.794;17.616;2024-03-23T11:25:28;15.07;;;3.50;;
56770;SDS011;42641;59.794;17.616;2024-03-23T11:28:09;9.63;;;2.60;;
56770;SDS011;42641;59.794;17.616;2024-03-23T11:30:41;8.97;;;2.70;;
56770;SDS011;42641;59.794;17.616;2024-03-23T11:33:08;11.70;;;3.27;;
56770;SDS011;42641;59.794;17.616;2024-03-23T11:35:39;9.00;;;2.83;;
56770;SDS011;42641;59.794;17.616;2024-03-23T11:38:07;10.17;;;3.27;;
56770;SDS011;42641;59.794;17.616;2024-03-23T11:40:33;8.33;;;2.73;;
56770;SDS011;42641;59.794;17.616;2024-03-23T11:43:01;8.47;;;2.53;;
56770;SDS011;42641;59.794;17.616;2024-03-23T11:45:33;13.13;;;3.20;;
56770;SDS011;42641;59.794;17.616;2024-03-23T11:48:05;12.33;;;2.90;;
56770;SDS011;42641;59.794;17.616;2024-03-23T11:50:33;9.90;;;2.50;;
56770;SDS011;42641;59.794;17.616;2024-03-23T11:53:13;12.70;;;2.80;;
56770;SDS011;42641;59.794;17.616;2024-03-23T11:55:47;9.77;;;2.80;;
56770;SDS011;42641;59.794;17.616;2024-03-23T11:58:16;9.50;;;2.90;;
56770;SDS011;42641;59.794;17.616;2024-03-23T12:00:55;7.57;;;2.40;;
56770;SDS011;42641;59.794;17.616;2024-03-23T12:03:26;7.43;;;2.33;;
56770;SDS011;42641;59.794;17.616;2024-03-23T12:05:54;7.60;;;2.90;;
56770;SDS011;42641;59.794;17.616;2024-03-23T12:08:30;9.87;;;2.53;;
56770;SDS011;42641;59.794;17.616;2024-03-23T12:13:37;8.53;;;2.97;;
56770;SDS011;42641;59.794;17.616;2024-03-23T12:18:40;7.50;;;2.90;;
56770;SDS011;42641;59.794;17.616;2024-03-23T12:21:08;13.67;;;3.80;;
56770;SDS011;42641;59.794;17.616;2024-03-23T12:23:35;9.67;;;3.40;;
56770;SDS011;42641;59.794;17.616;2024-03-23T12:26:01;8.73;;;2.83;;
56770;SDS011;42641;59.794;17.616;2024-03-23T12:28:28;8.30;;;3.07;;
56770;SDS011;42641;59.794;17.616;2024-03-23T12:30:54;10.13;;;2.83;;
56770;SDS011;42641;59.794;17.616;2024-03-23T12:33:21;9.93;;;2.90;;
56770;SDS011;42641;59.794;17.616;2024-03-23T12:35:48;12.07;;;3.23;;
56770;SDS011;42641;59.794;17.616;2024-03-23T12:38:18;11.63;;;2.90;;
56770;SDS011;42641;59.794;17.616;2024-03-23T12:40:48;11.70;;;2.77;;
56770;SDS011;42641;59.794;17.616;2024-03-23T12:43:15;11.10;;;2.97;;
56770;SDS011;42641;59.794;17.616;2024-03-23T12:45:46;13.00;;;3.17;;
56770;SDS011;42641;59.794;17.616;2024-03-23T12:48:13;8.27;;;3.00;;
56770;SDS011;42641;59.794;17.616;2024-03-23T12:50:39;9.90;;;2.80;;
56770;SDS011;42641;59.794;17.616;2024-03-23T12:53:06;9.10;;;3.20;;
56770;SDS011;42641;59.794;17.616;2024-03-23T12:55:34;6.33;;;2.67;;
56770;SDS011;42641;59.794;17.616;2024-03-23T12:58:01;7.73;;;2.70;;
56770;SDS011;42641;59.794;17.616;2024-03-23T13:00:27;7.27;;;2.50;;
56770;SDS011;42641;59.794;17.616;2024-03-23T13:02:54;7.70;;;2.73;;
56770;SDS011;42641;59.794;17.616;2024-03-23T13:05:20;10.83;;;2.70;;
56770;SDS011;42641;59.794;17.616;2024-03-23T13:07:46;11.07;;;2.80;;
56770;SDS011;42641;59.794;17.616;2024-03-23T13:10:13;10.17;;;3.70;;
56770;SDS011;42641;59.794;17.616;2024-03-23T13:12:40;9.93;;;2.90;;
56770;SDS011;42641;59.794;17.616;2024-03-23T13:15:08;7.37;;;3.23;;
56770;SDS011;42641;59.794;17.616;2024-03-23T13:17:35;10.73;;;2.83;;
56770;SDS011;42641;59.794;17.616;2024-03-23T13:20:01;7.83;;;2.57;;
56770;SDS011;42641;59.794;17.616;2024-03-23T13:22:29;7.97;;;2.63;;
56770;SDS011;42641;59.794;17.616;2024-03-23T13:24:55;7.57;;;2.53;;
56770;SDS011;42641;59.794;17.616;2024-03-23T13:27:22;9.33;;;2.93;;
56770;SDS011;42641;59.794;17.616;2024-03-23T13:29:48;8.80;;;3.45;;
56770;SDS011;42641;59.794;17.616;2024-03-23T13:32:16;8.25;;;2.35;;
56770;SDS011;42641;59.794;17.616;2024-03-23T13:34:42;7.67;;;2.80;;
56770;SDS011;42641;59.794;17.616;2024-03-23T13:37:08;11.87;;;2.73;;
56770;SDS011;42641;59.794;17.616;2024-03-23T13:39:35;7.63;;;2.60;;
56770;SDS011;42641;59.794;17.616;2024-03-23T13:42:02;8.10;;;2.90;;
56770;SDS011;42641;59.794;17.616;2024-03-23T13:44:29;6.57;;;2.20;;
56770;SDS011;42641;59.794;17.616;2024-03-23T13:46:55;5.37;;;2.00;;
56770;SDS011;42641;59.794;17.616;2024-03-23T13:49:26;7.17;;;2.10;;
56770;SDS011;42641;59.794;17.616;2024-03-23T13:51:53;6.50;;;2.00;;
56770;SDS011;42641;59.794;17.616;2024-03-23T13:54:21;6.23;;;1.90;;
56770;SDS011;42641;59.794;17.616;2024-03-23T13:56:48;8.63;;;2.60;;
56770;SDS011;42641;59.794;17.616;2024-03-23T13:59:15;9.77;;;3.50;;
56770;SDS011;42641;59.794;17.616;2024-03-23T14:01:41;8.07;;;2.50;;
56770;SDS011;42641;59.794;17.616;2024-03-23T14:04:07;6.47;;;2.33;;
56770;SDS011;42641;59.794;17.616;2024-03-23T14:06:34;6.10;;;2.40;;
56770;SDS011;42641;59.794;17.616;2024-03-23T14:09:00;5.07;;;2.20;;
56770;SDS011;42641;59.794;17.616;2024-03-23T14:11:26;10.40;;;2.50;;
56770;SDS011;42641;59.794;17.616;2024-03-23T14:13:54;8.30;;;2.20;;
56770;SDS011;42641;59.794;17.616;2024-03-23T14:16:20;9.20;;;2.17;;
56770;SDS011;42641;59.794;17.616;2024-03-23T14:18:47;5.57;;;2.20;;
56770;SDS011;42641;59.794;17.616;2024-03-23T14:21:13;7.20;;;2.15;;
56770;SDS011;42641;59.794;17.616;2024-03-23T14:23:39;7.43;;;2.23;;
56770;SDS011;42641;59.794;17.616;2024-03-23T14:26:08;5.88;;;2.38;;
56770;SDS011;42641;59.794;17.616;2024-03-23T14:28:35;5.82;;;2.30;;
56770;SDS011;42641;59.794;17.616;2024-03-23T14:31:01;8.57;;;2.58;;
56770;SDS011;42641;59.794;17.616;2024-03-23T14:33:29;8.53;;;2.20;;
56770;SDS011;42641;59.794;17.616;2024-03-23T14:35:55;11.20;;;3.23;;
56770;SDS011;42641;59.794;17.616;2024-03-23T14:38:25;4.30;;;1.85;;
56770;SDS011;42641;59.794;17.616;2024-03-23T14:40:51;6.65;;;2.20;;
56770;SDS011;42641;59.794;17.616;2024-03-23T14:43:18;12.55;;;2.80;;
56770;SDS011;42641;59.794;17.616;2024-03-23T14:48:40;8.77;;;2.22;;
56770;SDS011;42641;59.794;17.616;2024-03-23T14:51:08;5.63;;;2.00;;
56770;SDS011;42641;59.794;17.616;2024-03-23T14:53:35;6.97;;;2.58;;
56770;SDS011;42641;59.794;17.616;2024-03-23T14:56:03;6.23;;;2.03;;
56770;SDS011;42641;59.794;17.616;2024-03-23T14:58:30;8.23;;;2.00;;
56770;SDS011;42641;59.794;17.616;2024-03-23T15:01:03;6.80;;;2.00;;
56770;SDS011;42641;59.794;17.616;2024-03-23T15:03:37;7.97;;;2.03;;
56770;SDS011;42641;59.794;17.616;2024-03-23T15:06:05;6.87;;;2.33;;
56770;SDS011;42641;59.794;17.616;2024-03-23T15:08:32;9.10;;;2.20;;
56770;SDS011;42641;59.794;17.616;2024-03-23T15:10:58;6.70;;;2.30;;
56770;SDS011;42641;59.794;17.616;2024-03-23T15:13:26;6.00;;;2.17;;
56770;SDS011;42641;59.794;17.616;2024-03-23T15:15:52;8.50;;;2.10;;
56770;SDS011;42641;59.794;17.616;2024-03-23T15:18:19;3.57;;;1.70;;
56770;SDS011;42641;59.794;17.616;2024-03-23T15:20:54;6.37;;;1.87;;
56770;SDS011;42641;59.794;17.616;2024-03-23T15:23:22;8.00;;;2.57;;
56770;SDS011;42641;59.794;17.616;2024-03-23T15:25:55;6.70;;;2.20;;
56770;SDS011;42641;59.794;17.616;2024-03-23T15:28:22;7.37;;;2.60;;
56770;SDS011;42641;59.794;17.616;2024-03-23T15:30:49;6.77;;;2.07;;
56770;SDS011;42641;59.794;17.616;2024-03-23T15:33:16;6.63;;;1.77;;
56770;SDS011;42641;59.794;17.616;2024-03-23T15:35:42;8.97;;;2.13;;
56770;SDS011;42641;59.794;17.616;2024-03-23T15:38:08;7.57;;;2.20;;
56770;SDS011;42641;59.794;17.616;2024-03-23T15:40:35;8.03;;;2.50;;
56770;SDS011;42641;59.794;17.616;2024-03-23T15:43:02;8.00;;;2.23;;